sensor_id;sensor_type;location;lat;lon;timestamp;noise_LAeq;noise_LA_min;noise_LA_max;noise_LA01;noise_LA95
58197;Laerm;43999;51.660;5.616;2023-04-15T00:00:57;52.76;40.98;65.85;;
58197;Laerm;43999;51.660;5.616;2023-04-15T00:03:27;56.67;39.81;71.29;;
58197;Laerm;43999;51.660;5.616;2023-04-15T00:05:57;54.19;40.43;68.23;;
58197;Laerm;43999;51.660;5.616;2023-04-15T00:08:24;42.75;38.37;54.19;;
58197;Laerm;43999;51.660;5.616;2023-04-15T00:10:53;47.24;39.46;68.31;;
58197;Laerm;43999;51.660;5.616;2023-04-15T00:13:23;48.66;38.02;63.05;;
58197;Laerm;43999;51.660;5.616;2023-04-15T00:15:50;57.22;38.95;71.08;;
58197;Laerm;43999;51.660;5.616;2023-04-15T00:18:18;53.44;38.67;68.55;;
58197;Laerm;43999;51.660;5.616;2023-04-15T00:20:45;54.64;38.52;77.64;;
58197;Laerm;43999;51.660;5.616;2023-04-15T00:23:13;44.36;38.67;60.91;;
58197;Laerm;43999;51.660;5.616;2023-04-15T00:25:43;50.60;38.52;64.65;;
58197;Laerm;43999;51.660;5.616;2023-04-15T00:28:10;50.86;39.21;69.47;;
58197;Laerm;43999;51.660;5.616;2023-04-15T00:30:38;46.17;39.70;60.42;;
58197;Laerm;43999;51.660;5.616;2023-04-15T00:33:08;42.55;38.37;56.40;;
58197;Laerm;43999;51.660;5.616;2023-04-15T00:35:42;48.31;40.13;66.86;;
58197;Laerm;43999;51.660;5.616;2023-04-15T00:38:10;54.57;37.70;68.23;;
58197;Laerm;43999;51.660;5.616;2023-04-15T00:40:40;60.52;40.13;75.49;;
58197;Laerm;43999;51.660;5.616;2023-04-15T00:43:07;45.05;37.88;60.79;;
58197;Laerm;43999;51.660;5.616;2023-04-15T00:45:34;48.46;38.52;70.05;;
58197;Laerm;43999;51.660;5.616;2023-04-15T00:48:03;51.32;38.05;68.52;;
58197;Laerm;43999;51.660;5.616;2023-04-15T00:50:32;51.22;39.46;67.98;;
58197;Laerm;43999;51.660;5.616;2023-04-15T00:53:02;44.20;38.95;55.91;;
58197;Laerm;43999;51.660;5.616;2023-04-15T00:55:32;46.35;38.05;69.31;;
58197;Laerm;43999;51.660;5.616;2023-04-15T00:57:59;55.11;39.92;70.75;;
58197;Laerm;43999;51.660;5.616;2023-04-15T01:00:28;50.08;39.11;67.48;;
58197;Laerm;43999;51.660;5.616;2023-04-15T01:02:59;51.16;38.52;66.01;;
58197;Laerm;43999;51.660;5.616;2023-04-15T01:05:27;52.06;39.21;68.85;;
58197;Laerm;43999;51.660;5.616;2023-04-15T01:07:56;53.58;39.34;66.84;;
58197;Laerm;43999;51.660;5.616;2023-04-15T01:10:25;47.89;38.81;62.18;;
58197;Laerm;43999;51.660;5.616;2023-04-15T01:12:52;54.53;40.98;69.32;;
58197;Laerm;43999;51.660;5.616;2023-04-15T01:15:21;46.84;40.53;58.92;;
58197;Laerm;43999;51.660;5.616;2023-04-15T01:17:49;51.76;37.87;70.46;;
58197;Laerm;43999;51.660;5.616;2023-04-15T01:20:17;50.10;38.95;68.40;;
58197;Laerm;43999;51.660;5.616;2023-04-15T01:22:45;52.47;38.52;65.87;;
58197;Laerm;43999;51.660;5.616;2023-04-15T01:25:33;46.59;39.21;60.68;;
58197;Laerm;43999;51.660;5.616;2023-04-15T01:28:02;52.80;38.37;67.84;;
58197;Laerm;43999;51.660;5.616;2023-04-15T01:30:34;50.95;38.81;67.61;;
58197;Laerm;43999;51.660;5.616;2023-04-15T01:33:02;50.56;39.08;67.22;;
58197;Laerm;43999;51.660;5.616;2023-04-15T01:35:30;49.37;38.67;63.59;;
58197;Laerm;43999;51.660;5.616;2023-04-15T01:38:06;51.45;38.21;63.75;;
58197;Laerm;43999;51.660;5.616;2023-04-15T01:40:34;51.28;38.52;67.97;;
58197;Laerm;43999;51.660;5.616;2023-04-15T01:43:02;53.17;38.05;74.60;;
58197;Laerm;43999;51.660;5.616;2023-04-15T01:45:29;47.80;39.08;60.06;;
58197;Laerm;43999;51.660;5.616;2023-04-15T01:47:57;51.58;38.52;68.55;;
58197;Laerm;43999;51.660;5.616;2023-04-15T01:50:25;42.64;37.88;56.62;;
58197;Laerm;43999;51.660;5.616;2023-04-15T01:52:54;54.16;38.37;68.28;;
58197;Laerm;43999;51.660;5.616;2023-04-15T01:55:23;42.12;37.32;54.54;;
58197;Laerm;43999;51.660;5.616;2023-04-15T01:57:50;43.32;37.52;56.87;;
58197;Laerm;43999;51.660;5.616;2023-04-15T02:00:20;42.67;38.21;56.06;;
58197;Laerm;43999;51.660;5.616;2023-04-15T02:02:52;51.54;38.02;68.92;;
58197;Laerm;43999;51.660;5.616;2023-04-15T02:05:20;43.07;37.52;59.95;;
58197;Laerm;43999;51.660;5.616;2023-04-15T02:07:47;48.07;39.08;68.24;;
58197;Laerm;43999;51.660;5.616;2023-04-15T02:10:15;45.16;37.70;67.19;;
58197;Laerm;43999;51.660;5.616;2023-04-15T02:12:43;50.95;39.46;65.76;;
58197;Laerm;43999;51.660;5.616;2023-04-15T02:15:10;47.37;38.95;64.92;;
58197;Laerm;43999;51.660;5.616;2023-04-15T02:17:38;43.00;38.21;52.47;;
58197;Laerm;43999;51.660;5.616;2023-04-15T02:20:09;53.50;37.88;72.01;;
58197;Laerm;43999;51.660;5.616;2023-04-15T02:22:37;42.91;37.70;51.75;;
58197;Laerm;43999;51.660;5.616;2023-04-15T02:25:06;42.37;38.05;59.26;;
58197;Laerm;43999;51.660;5.616;2023-04-15T02:27:34;43.19;37.32;62.76;;
58197;Laerm;43999;51.660;5.616;2023-04-15T02:30:04;54.23;38.52;70.78;;
58197;Laerm;43999;51.660;5.616;2023-04-15T02:32:34;51.79;38.67;73.88;;
58197;Laerm;43999;51.660;5.616;2023-04-15T02:35:08;44.68;38.37;62.16;;
58197;Laerm;43999;51.660;5.616;2023-04-15T02:37:37;42.13;37.70;52.31;;
58197;Laerm;43999;51.660;5.616;2023-04-15T02:40:12;51.24;38.05;68.19;;
58197;Laerm;43999;51.660;5.616;2023-04-15T02:42:42;50.92;38.52;68.40;;
58197;Laerm;43999;51.660;5.616;2023-04-15T02:45:14;47.77;39.78;61.72;;
58197;Laerm;43999;51.660;5.616;2023-04-15T02:47:43;45.86;38.81;60.06;;
58197;Laerm;43999;51.660;5.616;2023-04-15T02:50:13;54.23;38.95;68.01;;
58197;Laerm;43999;51.660;5.616;2023-04-15T02:52:42;51.95;38.81;66.75;;
58197;Laerm;43999;51.660;5.616;2023-04-15T02:55:11;43.23;38.52;58.37;;
58197;Laerm;43999;51.660;5.616;2023-04-15T02:57:39;42.69;36.91;54.72;;
58197;Laerm;43999;51.660;5.616;2023-04-15T03:00:10;47.73;39.70;63.12;;
58197;Laerm;43999;51.660;5.616;2023-04-15T03:02:41;49.02;38.95;63.30;;
58197;Laerm;43999;51.660;5.616;2023-04-15T03:05:13;46.64;39.34;60.49;;
58197;Laerm;43999;51.660;5.616;2023-04-15T03:07:47;53.60;38.21;67.91;;
58197;Laerm;43999;51.660;5.616;2023-04-15T03:10:14;47.17;38.37;59.92;;
58197;Laerm;43999;51.660;5.616;2023-04-15T03:12:42;49.06;38.67;62.21;;
58197;Laerm;43999;51.660;5.616;2023-04-15T03:15:16;42.80;37.32;60.58;;
58197;Laerm;43999;51.660;5.616;2023-04-15T03:17:46;47.99;39.34;67.96;;
58197;Laerm;43999;51.660;5.616;2023-04-15T03:20:15;46.10;39.46;62.30;;
58197;Laerm;43999;51.660;5.616;2023-04-15T03:22:43;45.62;39.81;59.15;;
58197;Laerm;43999;51.660;5.616;2023-04-15T03:25:12;45.18;39.58;58.88;;
58197;Laerm;43999;51.660;5.616;2023-04-15T03:27:40;54.62;39.81;71.11;;
58197;Laerm;43999;51.660;5.616;2023-04-15T03:30:09;53.53;39.70;70.64;;
58197;Laerm;43999;51.660;5.616;2023-04-15T03:32:39;45.28;38.67;57.03;;
58197;Laerm;43999;51.660;5.616;2023-04-15T03:35:08;46.64;39.08;61.51;;
58197;Laerm;43999;51.660;5.616;2023-04-15T03:37:38;48.26;38.67;66.52;;
58197;Laerm;43999;51.660;5.616;2023-04-15T03:40:07;49.11;40.23;68.76;;
58197;Laerm;43999;51.660;5.616;2023-04-15T03:42:35;48.00;39.81;58.65;;
58197;Laerm;43999;51.660;5.616;2023-04-15T03:45:03;49.12;39.21;64.69;;
58197;Laerm;43999;51.660;5.616;2023-04-15T03:47:31;52.72;40.88;69.47;;
58197;Laerm;43999;51.660;5.616;2023-04-15T03:49:58;51.35;40.63;68.83;;
58197;Laerm;43999;51.660;5.616;2023-04-15T03:52:26;48.11;40.53;71.21;;
58197;Laerm;43999;51.660;5.616;2023-04-15T03:54:55;50.49;39.70;66.26;;
58197;Laerm;43999;51.660;5.616;2023-04-15T03:57:22;47.35;40.43;62.97;;
58197;Laerm;43999;51.660;5.616;2023-04-15T03:59:49;59.28;41.38;76.09;;
58197;Laerm;43999;51.660;5.616;2023-04-15T04:02:17;54.49;40.80;68.23;;
58197;Laerm;43999;51.660;5.616;2023-04-15T04:04:44;52.36;41.30;68.96;;
58197;Laerm;43999;51.660;5.616;2023-04-15T04:07:16;53.50;41.89;65.53;;
58197;Laerm;43999;51.660;5.616;2023-04-15T04:09:44;54.31;41.82;70.65;;
58197;Laerm;43999;51.660;5.616;2023-04-15T04:12:13;56.27;42.65;71.91;;
58197;Laerm;43999;51.660;5.616;2023-04-15T04:14:42;56.12;40.23;70.33;;
58197;Laerm;43999;51.660;5.616;2023-04-15T04:17:10;54.24;40.71;68.76;;
58197;Laerm;43999;51.660;5.616;2023-04-15T04:19:37;50.66;40.33;64.83;;
58197;Laerm;43999;51.660;5.616;2023-04-15T04:22:05;51.33;40.89;70.79;;
58197;Laerm;43999;51.660;5.616;2023-04-15T04:24:32;48.32;41.06;61.23;;
58197;Laerm;43999;51.660;5.616;2023-04-15T04:27:00;47.18;40.53;62.17;;
58197;Laerm;43999;51.660;5.616;2023-04-15T04:29:30;53.26;42.47;69.29;;
58197;Laerm;43999;51.660;5.616;2023-04-15T04:31:57;52.53;41.14;72.44;;
58197;Laerm;43999;51.660;5.616;2023-04-15T04:34:24;51.28;41.96;67.57;;
58197;Laerm;43999;51.660;5.616;2023-04-15T04:36:52;54.56;42.03;71.90;;
58197;Laerm;43999;51.660;5.616;2023-04-15T04:39:19;53.21;42.22;70.08;;
58197;Laerm;43999;51.660;5.616;2023-04-15T04:41:46;55.23;42.35;72.69;;
58197;Laerm;43999;51.660;5.616;2023-04-15T04:44:14;53.83;42.71;66.08;;
58197;Laerm;43999;51.660;5.616;2023-04-15T04:46:41;56.72;40.71;69.29;;
58197;Laerm;43999;51.660;5.616;2023-04-15T04:49:10;55.71;42.35;72.14;;
58197;Laerm;43999;51.660;5.616;2023-04-15T04:51:39;58.12;41.82;72.75;;
58197;Laerm;43999;51.660;5.616;2023-04-15T04:54:06;57.91;44.03;71.17;;
58197;Laerm;43999;51.660;5.616;2023-04-15T04:56:34;55.34;42.88;68.25;;
58197;Laerm;43999;51.660;5.616;2023-04-15T04:59:01;54.52;40.71;75.76;;
58197;Laerm;43999;51.660;5.616;2023-04-15T05:01:30;55.17;41.38;69.06;;
58197;Laerm;43999;51.660;5.616;2023-04-15T05:03:57;56.22;42.22;73.92;;
58197;Laerm;43999;51.660;5.616;2023-04-15T05:06:26;55.17;41.82;72.36;;
58197;Laerm;43999;51.660;5.616;2023-04-15T05:08:58;57.54;42.41;73.79;;
58197;Laerm;43999;51.660;5.616;2023-04-15T05:11:26;55.14;41.14;69.33;;
58197;Laerm;43999;51.660;5.616;2023-04-15T05:13:54;54.90;43.54;67.37;;
58197;Laerm;43999;51.660;5.616;2023-04-15T05:16:22;57.68;40.80;76.31;;
58197;Laerm;43999;51.660;5.616;2023-04-15T05:18:50;55.62;41.46;66.39;;
58197;Laerm;43999;51.660;5.616;2023-04-15T05:21:19;58.92;43.24;71.42;;
58197;Laerm;43999;51.660;5.616;2023-04-15T05:23:47;54.61;43.09;66.98;;
58197;Laerm;43999;51.660;5.616;2023-04-15T05:26:17;57.83;43.04;75.32;;
58197;Laerm;43999;51.660;5.616;2023-04-15T05:28:44;56.79;43.72;69.90;;
58197;Laerm;43999;51.660;5.616;2023-04-15T05:31:14;55.01;41.68;73.31;;
58197;Laerm;43999;51.660;5.616;2023-04-15T05:33:42;55.34;42.88;67.09;;
58197;Laerm;43999;51.660;5.616;2023-04-15T05:36:09;62.32;47.77;81.39;;
58197;Laerm;43999;51.660;5.616;2023-04-15T05:38:45;59.20;43.09;79.28;;
58197;Laerm;43999;51.660;5.616;2023-04-15T05:41:13;55.88;42.65;69.89;;
58197;Laerm;43999;51.660;5.616;2023-04-15T05:43:44;56.57;43.49;68.53;;
58197;Laerm;43999;51.660;5.616;2023-04-15T05:46:11;58.02;43.34;68.35;;
58197;Laerm;43999;51.660;5.616;2023-04-15T05:48:39;58.84;43.04;75.15;;
58197;Laerm;43999;51.660;5.616;2023-04-15T05:51:06;61.85;45.60;78.01;;
58197;Laerm;43999;51.660;5.616;2023-04-15T05:53:34;60.33;47.22;75.02;;
58197;Laerm;43999;51.660;5.616;2023-04-15T05:56:02;62.19;44.80;83.60;;
58197;Laerm;43999;51.660;5.616;2023-04-15T05:58:29;59.81;45.17;70.69;;
58197;Laerm;43999;51.660;5.616;2023-04-15T06:00:56;60.83;48.12;81.08;;
58197;Laerm;43999;51.660;5.616;2023-04-15T06:03:24;60.46;45.77;72.15;;
58197;Laerm;43999;51.660;5.616;2023-04-15T06:05:51;57.93;44.15;76.86;;
58197;Laerm;43999;51.660;5.616;2023-04-15T06:08:19;59.29;44.87;74.98;;
58197;Laerm;43999;51.660;5.616;2023-04-15T06:10:47;62.11;45.54;78.33;;
58197;Laerm;43999;51.660;5.616;2023-04-15T06:13:14;60.32;46.02;71.11;;
58197;Laerm;43999;51.660;5.616;2023-04-15T06:15:44;61.72;47.72;77.44;;
58197;Laerm;43999;51.660;5.616;2023-04-15T06:18:11;59.28;45.20;72.93;;
58197;Laerm;43999;51.660;5.616;2023-04-15T06:20:40;59.18;44.19;70.72;;
58197;Laerm;43999;51.660;5.616;2023-04-15T06:23:07;62.19;44.83;78.00;;
58197;Laerm;43999;51.660;5.616;2023-04-15T06:25:37;58.33;45.86;70.30;;
58197;Laerm;43999;51.660;5.616;2023-04-15T06:28:04;58.21;46.92;69.55;;
58197;Laerm;43999;51.660;5.616;2023-04-15T06:30:34;61.10;48.03;73.64;;
58197;Laerm;43999;51.660;5.616;2023-04-15T06:33:02;61.20;44.51;72.59;;
58197;Laerm;43999;51.660;5.616;2023-04-15T06:35:31;59.40;46.18;83.50;;
58197;Laerm;43999;51.660;5.616;2023-04-15T06:37:59;61.28;46.78;74.16;;
58197;Laerm;43999;51.660;5.616;2023-04-15T06:40:26;61.53;48.98;74.50;;
58197;Laerm;43999;51.660;5.616;2023-04-15T06:42:54;60.45;48.87;71.06;;
58197;Laerm;43999;51.660;5.616;2023-04-15T06:45:22;64.27;46.66;78.22;;
58197;Laerm;43999;51.660;5.616;2023-04-15T06:47:50;61.96;45.33;83.03;;
58197;Laerm;43999;51.660;5.616;2023-04-15T06:50:19;61.04;46.38;78.64;;
58197;Laerm;43999;51.660;5.616;2023-04-15T06:52:48;63.70;49.24;78.31;;
58197;Laerm;43999;51.660;5.616;2023-04-15T06:55:16;61.88;48.51;84.53;;
58197;Laerm;43999;51.660;5.616;2023-04-15T06:57:44;63.71;50.63;78.62;;
58197;Laerm;43999;51.660;5.616;2023-04-15T07:00:13;60.61;48.48;80.36;;
58197;Laerm;43999;51.660;5.616;2023-04-15T07:02:45;63.96;53.64;76.78;;
58197;Laerm;43999;51.660;5.616;2023-04-15T07:05:23;60.04;47.50;78.85;;
58197;Laerm;43999;51.660;5.616;2023-04-15T07:07:53;61.66;49.94;71.92;;
58197;Laerm;43999;51.660;5.616;2023-04-15T07:10:25;61.79;51.42;70.52;;
58197;Laerm;43999;51.660;5.616;2023-04-15T07:12:59;62.06;49.41;70.86;;
58197;Laerm;43999;51.660;5.616;2023-04-15T07:15:27;61.77;47.83;74.40;;
58197;Laerm;43999;51.660;5.616;2023-04-15T07:17:56;64.11;51.26;77.69;;
58197;Laerm;43999;51.660;5.616;2023-04-15T07:20:23;62.68;50.10;78.31;;
58197;Laerm;43999;51.660;5.616;2023-04-15T07:22:52;62.10;47.93;78.50;;
58197;Laerm;43999;51.660;5.616;2023-04-15T07:25:20;61.01;50.42;77.02;;
58197;Laerm;43999;51.660;5.616;2023-04-15T07:27:49;63.15;49.69;80.54;;
58197;Laerm;43999;51.660;5.616;2023-04-15T07:30:17;62.03;49.36;72.44;;
58197;Laerm;43999;51.660;5.616;2023-04-15T07:32:46;60.30;48.63;71.76;;
58197;Laerm;43999;51.660;5.616;2023-04-15T07:35:15;64.17;50.90;74.48;;
58197;Laerm;43999;51.660;5.616;2023-04-15T07:37:44;61.11;52.15;77.36;;
58197;Laerm;43999;51.660;5.616;2023-04-15T07:40:14;62.49;51.13;74.66;;
58197;Laerm;43999;51.660;5.616;2023-04-15T07:42:43;61.34;47.04;72.53;;
58197;Laerm;43999;51.660;5.616;2023-04-15T07:45:19;60.68;47.10;72.21;;
58197;Laerm;43999;51.660;5.616;2023-04-15T07:47:49;62.66;50.32;73.85;;
58197;Laerm;43999;51.660;5.616;2023-04-15T07:50:21;62.39;52.80;77.33;;
58197;Laerm;43999;51.660;5.616;2023-04-15T07:52:51;62.81;55.09;72.91;;
58197;Laerm;43999;51.660;5.616;2023-04-15T07:55:19;62.92;50.61;76.21;;
58197;Laerm;43999;51.660;5.616;2023-04-15T07:57:49;64.38;55.79;77.77;;
58197;Laerm;43999;51.660;5.616;2023-04-15T08:00:18;64.27;53.42;82.35;;
58197;Laerm;43999;51.660;5.616;2023-04-15T08:02:49;65.75;52.76;81.09;;
58197;Laerm;43999;51.660;5.616;2023-04-15T08:05:21;64.83;54.41;84.56;;
58197;Laerm;43999;51.660;5.616;2023-04-15T08:07:51;65.29;53.91;77.85;;
58197;Laerm;43999;51.660;5.616;2023-04-15T08:10:19;63.22;51.45;76.38;;
58197;Laerm;43999;51.660;5.616;2023-04-15T08:12:48;62.49;50.53;78.03;;
58197;Laerm;43999;51.660;5.616;2023-04-15T08:15:15;63.65;52.28;79.22;;
58197;Laerm;43999;51.660;5.616;2023-04-15T08:17:44;64.08;50.67;82.40;;
58197;Laerm;43999;51.660;5.616;2023-04-15T08:20:15;63.30;53.75;76.01;;
58197;Laerm;43999;51.660;5.616;2023-04-15T08:22:49;62.94;51.82;78.02;;
58197;Laerm;43999;51.660;5.616;2023-04-15T08:25:21;67.75;54.00;84.58;;
58197;Laerm;43999;51.660;5.616;2023-04-15T08:27:54;64.64;52.60;79.12;;
58197;Laerm;43999;51.660;5.616;2023-04-15T08:30:23;63.60;55.70;73.04;;
58197;Laerm;43999;51.660;5.616;2023-04-15T08:32:51;63.12;52.94;76.89;;
58197;Laerm;43999;51.660;5.616;2023-04-15T08:35:22;65.95;48.91;86.29;;
58197;Laerm;43999;51.660;5.616;2023-04-15T08:37:50;63.55;53.63;80.37;;
58197;Laerm;43999;51.660;5.616;2023-04-15T08:40:18;62.93;53.51;75.05;;
58197;Laerm;43999;51.660;5.616;2023-04-15T08:42:52;64.43;52.45;83.20;;
58197;Laerm;43999;51.660;5.616;2023-04-15T08:45:22;67.41;52.29;81.65;;
58197;Laerm;43999;51.660;5.616;2023-04-15T08:47:54;65.77;55.00;82.75;;
58197;Laerm;43999;51.660;5.616;2023-04-15T08:50:25;63.91;55.59;80.00;;
58197;Laerm;43999;51.660;5.616;2023-04-15T08:52:57;65.19;54.12;78.42;;
58197;Laerm;43999;51.660;5.616;2023-04-15T08:55:32;64.49;53.11;86.85;;
58197;Laerm;43999;51.660;5.616;2023-04-15T08:58:03;65.29;52.45;78.81;;
58197;Laerm;43999;51.660;5.616;2023-04-15T09:00:32;64.02;51.50;85.31;;
58197;Laerm;43999;51.660;5.616;2023-04-15T09:03:00;65.24;55.14;78.33;;
58197;Laerm;43999;51.660;5.616;2023-04-15T09:05:32;64.21;54.66;78.88;;
58197;Laerm;43999;51.660;5.616;2023-04-15T09:08:02;63.41;54.69;75.02;;
58197;Laerm;43999;51.660;5.616;2023-04-15T09:10:32;66.41;53.39;82.44;;
58197;Laerm;43999;51.660;5.616;2023-04-15T09:13:00;62.65;55.37;74.13;;
58197;Laerm;43999;51.660;5.616;2023-04-15T09:15:31;64.11;50.96;78.00;;
58197;Laerm;43999;51.660;5.616;2023-04-15T09:18:01;65.15;52.83;85.32;;
58197;Laerm;43999;51.660;5.616;2023-04-15T09:20:29;64.32;53.78;77.41;;
58197;Laerm;43999;51.660;5.616;2023-04-15T09:23:11;63.89;54.70;78.06;;
58197;Laerm;43999;51.660;5.616;2023-04-15T09:25:44;66.17;52.15;81.03;;
58197;Laerm;43999;51.660;5.616;2023-04-15T09:28:12;65.14;53.52;85.13;;
58197;Laerm;43999;51.660;5.616;2023-04-15T09:30:42;64.09;53.54;83.40;;
58197;Laerm;43999;51.660;5.616;2023-04-15T09:33:14;64.07;53.19;80.90;;
58197;Laerm;43999;51.660;5.616;2023-04-15T09:36:08;67.17;52.73;86.41;;
58197;Laerm;43999;51.660;5.616;2023-04-15T09:38:59;64.46;52.97;82.29;;
58197;Laerm;43999;51.660;5.616;2023-04-15T09:41:28;64.67;56.79;84.96;;
58197;Laerm;43999;51.660;5.616;2023-04-15T09:43:55;70.60;53.76;93.02;;
58197;Laerm;43999;51.660;5.616;2023-04-15T09:46:44;67.72;54.79;89.00;;
58197;Laerm;43999;51.660;5.616;2023-04-15T09:49:13;64.43;52.25;86.27;;
58197;Laerm;43999;51.660;5.616;2023-04-15T09:51:42;63.53;52.90;83.20;;
58197;Laerm;43999;51.660;5.616;2023-04-15T09:54:46;68.67;54.83;86.54;;
58197;Laerm;43999;51.660;5.616;2023-04-15T09:57:16;69.97;53.51;92.92;;
58197;Laerm;43999;51.660;5.616;2023-04-15T09:59:46;67.83;53.01;92.69;;
58197;Laerm;43999;51.660;5.616;2023-04-15T10:02:17;65.18;53.53;84.51;;
58197;Laerm;43999;51.660;5.616;2023-04-15T10:04:48;64.78;54.80;79.53;;
58197;Laerm;43999;51.660;5.616;2023-04-15T10:07:17;62.48;52.24;78.77;;
58197;Laerm;43999;51.660;5.616;2023-04-15T10:09:49;63.77;51.70;78.06;;
58197;Laerm;43999;51.660;5.616;2023-04-15T10:12:21;63.83;53.90;76.99;;
58197;Laerm;43999;51.660;5.616;2023-04-15T10:15:00;65.59;55.30;83.69;;
58197;Laerm;43999;51.660;5.616;2023-04-15T10:17:31;64.86;52.28;84.40;;
58197;Laerm;43999;51.660;5.616;2023-04-15T10:20:04;65.96;55.65;87.10;;
58197;Laerm;43999;51.660;5.616;2023-04-15T10:22:37;69.11;57.05;86.31;;
58197;Laerm;43999;51.660;5.616;2023-04-15T10:25:08;66.76;55.77;85.69;;
58197;Laerm;43999;51.660;5.616;2023-04-15T10:27:39;65.92;54.88;82.49;;
58197;Laerm;43999;51.660;5.616;2023-04-15T10:30:11;64.31;52.46;82.77;;
58197;Laerm;43999;51.660;5.616;2023-04-15T10:32:39;73.45;52.85;93.91;;
58197;Laerm;43999;51.660;5.616;2023-04-15T10:35:12;66.13;56.20;90.65;;
58197;Laerm;43999;51.660;5.616;2023-04-15T10:37:52;64.94;53.45;80.69;;
58197;Laerm;43999;51.660;5.616;2023-04-15T10:40:32;64.44;55.29;81.33;;
58197;Laerm;43999;51.660;5.616;2023-04-15T10:43:01;71.01;56.09;88.93;;
58197;Laerm;43999;51.660;5.616;2023-04-15T10:45:36;64.60;55.57;80.06;;
58197;Laerm;43999;51.660;5.616;2023-04-15T10:48:07;66.95;56.51;83.06;;
58197;Laerm;43999;51.660;5.616;2023-04-15T10:50:55;67.67;55.52;90.89;;
58197;Laerm;43999;51.660;5.616;2023-04-15T10:53:30;64.00;52.61;76.93;;
58197;Laerm;43999;51.660;5.616;2023-04-15T10:55:59;62.18;51.24;73.74;;
58197;Laerm;43999;51.660;5.616;2023-04-15T10:58:42;65.30;54.60;84.14;;
58197;Laerm;43999;51.660;5.616;2023-04-15T11:01:10;64.86;54.72;78.27;;
58197;Laerm;43999;51.660;5.616;2023-04-15T11:03:42;63.77;52.74;76.83;;
58197;Laerm;43999;51.660;5.616;2023-04-15T11:06:11;66.80;54.13;84.64;;
58197;Laerm;43999;51.660;5.616;2023-04-15T11:08:54;64.79;53.66;83.88;;
58197;Laerm;43999;51.660;5.616;2023-04-15T11:11:22;62.77;52.98;78.90;;
58197;Laerm;43999;51.660;5.616;2023-04-15T11:13:51;62.51;52.76;72.87;;
58197;Laerm;43999;51.660;5.616;2023-04-15T11:16:20;65.55;52.76;78.62;;
58197;Laerm;43999;51.660;5.616;2023-04-15T11:18:55;64.20;55.08;81.92;;
58197;Laerm;43999;51.660;5.616;2023-04-15T11:21:26;64.12;53.18;76.18;;
58197;Laerm;43999;51.660;5.616;2023-04-15T11:23:55;63.54;55.15;75.09;;
58197;Laerm;43999;51.660;5.616;2023-04-15T11:26:25;63.66;54.75;75.30;;
58197;Laerm;43999;51.660;5.616;2023-04-15T11:28:56;65.79;54.28;85.50;;
58197;Laerm;43999;51.660;5.616;2023-04-15T11:31:27;70.76;56.39;87.41;;
58197;Laerm;43999;51.660;5.616;2023-04-15T11:33:59;67.75;54.88;92.11;;
58197;Laerm;43999;51.660;5.616;2023-04-15T11:36:30;68.80;56.50;86.82;;
58197;Laerm;43999;51.660;5.616;2023-04-15T11:39:01;66.12;56.55;81.97;;
58197;Laerm;43999;51.660;5.616;2023-04-15T11:41:29;65.91;54.91;80.25;;
58197;Laerm;43999;51.660;5.616;2023-04-15T11:43:56;67.50;56.22;85.94;;
58197;Laerm;43999;51.660;5.616;2023-04-15T11:46:30;63.39;55.22;78.98;;
58197;Laerm;43999;51.660;5.616;2023-04-15T11:48:58;68.94;53.93;84.45;;
58197;Laerm;43999;51.660;5.616;2023-04-15T11:51:31;68.66;52.94;87.94;;
58197;Laerm;43999;51.660;5.616;2023-04-15T11:54:00;68.46;54.75;87.32;;
58197;Laerm;43999;51.660;5.616;2023-04-15T11:56:29;68.48;59.12;87.46;;
58197;Laerm;43999;51.660;5.616;2023-04-15T11:58:58;66.57;55.21;88.30;;
58197;Laerm;43999;51.660;5.616;2023-04-15T12:01:38;67.14;53.79;86.11;;
58197;Laerm;43999;51.660;5.616;2023-04-15T12:04:16;65.17;51.57;81.11;;
58197;Laerm;43999;51.660;5.616;2023-04-15T12:06:52;64.39;55.39;82.49;;
58197;Laerm;43999;51.660;5.616;2023-04-15T12:09:20;61.79;55.04;77.19;;
58197;Laerm;43999;51.660;5.616;2023-04-15T12:11:56;72.90;56.32;89.26;;
58197;Laerm;43999;51.660;5.616;2023-04-15T12:14:27;67.10;54.59;83.74;;
58197;Laerm;43999;51.660;5.616;2023-04-15T12:17:03;63.35;54.24;78.37;;
58197;Laerm;43999;51.660;5.616;2023-04-15T12:22:14;71.27;57.51;88.78;;
58197;Laerm;43999;51.660;5.616;2023-04-15T12:24:44;66.28;55.28;84.95;;
58197;Laerm;43999;51.660;5.616;2023-04-15T12:27:15;65.57;53.23;87.18;;
58197;Laerm;43999;51.660;5.616;2023-04-15T12:29:44;73.03;57.48;87.65;;
58197;Laerm;43999;51.660;5.616;2023-04-15T12:32:15;67.18;54.03;87.54;;
58197;Laerm;43999;51.660;5.616;2023-04-15T12:34:54;64.00;52.63;83.21;;
58197;Laerm;43999;51.660;5.616;2023-04-15T12:37:21;71.51;57.40;89.48;;
58197;Laerm;43999;51.660;5.616;2023-04-15T12:39:50;70.56;56.73;88.03;;
58197;Laerm;43999;51.660;5.616;2023-04-15T12:42:18;74.17;53.73;94.82;;
58197;Laerm;43999;51.660;5.616;2023-04-15T12:44:46;67.33;54.67;87.77;;
58197;Laerm;43999;51.660;5.616;2023-04-15T12:47:14;67.92;54.64;87.05;;
58197;Laerm;43999;51.660;5.616;2023-04-15T12:49:45;63.86;52.39;82.21;;
58197;Laerm;43999;51.660;5.616;2023-04-15T12:52:13;69.88;57.19;89.83;;
58197;Laerm;43999;51.660;5.616;2023-04-15T12:54:41;65.64;54.11;78.63;;
58197;Laerm;43999;51.660;5.616;2023-04-15T12:57:10;63.94;53.97;84.62;;
58197;Laerm;43999;51.660;5.616;2023-04-15T12:59:41;62.93;53.29;81.87;;
58197;Laerm;43999;51.660;5.616;2023-04-15T13:02:09;67.57;53.00;87.44;;
58197;Laerm;43999;51.660;5.616;2023-04-15T13:04:37;66.42;55.04;82.66;;
58197;Laerm;43999;51.660;5.616;2023-04-15T13:07:06;63.22;53.93;74.62;;
58197;Laerm;43999;51.660;5.616;2023-04-15T13:09:33;63.19;53.90;79.06;;
58197;Laerm;43999;51.660;5.616;2023-04-15T13:12:01;70.30;55.88;87.74;;
58197;Laerm;43999;51.660;5.616;2023-04-15T13:14:31;68.22;55.63;88.63;;
58197;Laerm;43999;51.660;5.616;2023-04-15T13:17:05;68.72;54.95;88.98;;
58197;Laerm;43999;51.660;5.616;2023-04-15T13:19:36;71.69;55.31;92.70;;
58197;Laerm;43999;51.660;5.616;2023-04-15T13:22:06;63.11;52.66;73.63;;
58197;Laerm;43999;51.660;5.616;2023-04-15T13:24:36;66.79;52.73;87.65;;
58197;Laerm;43999;51.660;5.616;2023-04-15T13:27:05;66.37;56.61;84.58;;
58197;Laerm;43999;51.660;5.616;2023-04-15T13:29:34;76.53;55.86;100.85;;
58197;Laerm;43999;51.660;5.616;2023-04-15T13:32:01;70.07;56.12;89.20;;
58197;Laerm;43999;51.660;5.616;2023-04-15T13:34:29;72.99;57.59;89.68;;
58197;Laerm;43999;51.660;5.616;2023-04-15T13:36:58;66.60;56.62;85.25;;
58197;Laerm;43999;51.660;5.616;2023-04-15T13:39:25;65.65;56.78;85.27;;
58197;Laerm;43999;51.660;5.616;2023-04-15T13:41:55;67.19;57.44;84.30;;
58197;Laerm;43999;51.660;5.616;2023-04-15T13:44:23;66.00;56.12;83.87;;
58197;Laerm;43999;51.660;5.616;2023-04-15T13:46:53;71.13;56.51;88.82;;
58197;Laerm;43999;51.660;5.616;2023-04-15T13:49:22;67.00;54.71;85.72;;
58197;Laerm;43999;51.660;5.616;2023-04-15T13:51:50;71.58;56.29;89.81;;
58197;Laerm;43999;51.660;5.616;2023-04-15T13:56:46;65.85;53.21;89.16;;
58197;Laerm;43999;51.660;5.616;2023-04-15T13:59:14;67.14;55.32;84.06;;
58197;Laerm;43999;51.660;5.616;2023-04-15T14:01:42;74.07;53.55;94.99;;
58197;Laerm;43999;51.660;5.616;2023-04-15T14:04:10;71.56;55.41;91.21;;